createdAt,value
2019-05-11T00:01:09.576Z,14.33
2019-05-11T00:03:46.958Z,13.83
2019-05-11T00:06:26.764Z,13.60
2019-05-11T00:09:07.298Z,12.97
2019-05-11T00:11:50.467Z,13.43
2019-05-11T00:14:33.842Z,12.93
2019-05-11T00:17:12.203Z,11.23
2019-05-11T00:19:52.925Z,12.03
2019-05-11T00:22:34.077Z,11.43
2019-05-11T00:25:14.142Z,10.60
2019-05-11T00:27:51.854Z,11.43
2019-05-11T00:30:31.123Z,12.57
2019-05-11T00:33:10.992Z,11.10
2019-05-11T00:35:48.770Z,12.50
2019-05-11T00:38:26.903Z,11.07
2019-05-11T00:41:05.779Z,10.67
2019-05-11T00:43:43.494Z,10.03
2019-05-11T00:46:21.854Z,10.17
2019-05-11T00:48:59.741Z,9.97
2019-05-11T00:51:39.494Z,10.10
2019-05-11T00:54:17.706Z,10.13
2019-05-11T00:56:55.112Z,10.17
2019-05-11T00:59:32.684Z,9.97
2019-05-11T01:02:11.939Z,10.03
2019-05-11T01:04:51.044Z,9.47
2019-05-11T01:07:31.456Z,10.50
2019-05-11T01:10:23.198Z,10.63
2019-05-11T01:12:49.693Z,10.70
2019-05-11T01:15:27.152Z,12.10
2019-05-11T01:18:04.666Z,12.13
2019-05-11T01:20:41.906Z,11.83
2019-05-11T01:23:18.991Z,11.90
2019-05-11T01:25:56.159Z,12.00
2019-05-11T01:28:33.246Z,10.93
2019-05-11T01:31:10.331Z,10.43
2019-05-11T01:33:47.441Z,11.57
2019-05-11T01:36:24.602Z,13.93
2019-05-11T01:39:01.701Z,12.67
2019-05-11T01:41:38.935Z,13.33
2019-05-11T01:44:16.055Z,12.60
2019-05-11T01:46:53.239Z,10.70
2019-05-11T01:49:30.319Z,11.63
2019-05-11T01:52:07.497Z,11.23
2019-05-11T01:54:44.576Z,11.47
2019-05-11T01:57:21.727Z,11.87
2019-05-11T01:59:58.817Z,11.60
2019-05-11T02:02:35.971Z,11.10
2019-05-11T02:05:29.956Z,11.20
2019-05-11T02:08:07.129Z,11.47
2019-05-11T02:10:44.212Z,10.97
2019-05-11T02:13:22.632Z,12.07
2019-05-11T02:15:59.712Z,12.70
2019-05-11T02:18:36.999Z,13.90
2019-05-11T02:21:14.097Z,12.97
2019-05-11T02:23:51.238Z,13.50
2019-05-11T02:26:28.342Z,10.77
2019-05-11T02:29:05.477Z,10.53
2019-05-11T02:31:42.666Z,11.00
2019-05-11T02:34:19.870Z,10.67
2019-05-11T02:36:56.961Z,10.27
2019-05-11T02:39:34.111Z,10.60
2019-05-11T02:42:11.235Z,11.17
2019-05-11T02:44:48.351Z,10.67
2019-05-11T02:47:25.483Z,11.77
2019-05-11T02:50:02.580Z,11.27
2019-05-11T02:52:39.806Z,11.80
2019-05-11T02:55:16.871Z,11.47
2019-05-11T02:57:54.112Z,11.53
2019-05-11T03:00:37.085Z,10.80
2019-05-11T03:03:14.274Z,11.77
2019-05-11T03:05:51.455Z,12.77
2019-05-11T03:08:28.638Z,12.73
2019-05-11T03:11:05.749Z,15.13
2019-05-11T03:13:42.809Z,14.53
2019-05-11T03:16:19.946Z,14.90
2019-05-11T03:18:57.065Z,13.50
2019-05-11T03:21:34.200Z,13.87
2019-05-11T03:24:11.221Z,14.23
2019-05-11T03:26:48.360Z,12.00
2019-05-11T03:29:25.502Z,12.10
2019-05-11T03:32:02.744Z,12.17
2019-05-11T03:34:39.822Z,13.37
2019-05-11T03:37:16.870Z,13.30
2019-05-11T03:39:54.038Z,13.27
2019-05-11T03:42:31.150Z,17.90
2019-05-11T03:45:08.338Z,16.73
2019-05-11T03:47:45.444Z,15.60
2019-05-11T03:50:22.584Z,14.07
2019-05-11T03:52:59.701Z,14.50
2019-05-11T03:55:36.849Z,15.30
2019-05-11T03:58:13.942Z,15.00
2019-05-11T04:00:51.088Z,14.13
2019-05-11T04:03:28.188Z,14.00
2019-05-11T04:06:05.779Z,14.60
2019-05-11T04:08:42.893Z,14.00
2019-05-11T04:11:20.064Z,13.53
2019-05-11T04:13:57.287Z,13.53
2019-05-11T04:16:34.458Z,13.27
2019-05-11T04:19:11.607Z,12.60
2019-05-11T04:21:48.775Z,12.70
2019-05-11T04:24:25.865Z,12.70
2019-05-11T04:27:02.971Z,13.67
2019-05-11T04:29:40.158Z,13.40
2019-05-11T04:32:17.275Z,13.83
2019-05-11T04:34:54.391Z,13.50
2019-05-11T04:37:31.511Z,14.77
2019-05-11T04:40:08.789Z,15.27
2019-05-11T04:42:54.833Z,14.93
2019-05-11T04:45:24.982Z,15.03
2019-05-11T04:48:02.144Z,14.50
2019-05-11T04:50:39.279Z,14.67
2019-05-11T04:53:19.517Z,14.83
2019-05-11T04:55:56.731Z,14.80
2019-05-11T04:58:34.903Z,14.27
2019-05-11T05:01:12.036Z,14.73
2019-05-11T05:03:54.447Z,13.13
2019-05-11T05:06:31.353Z,13.87
2019-05-11T05:09:08.514Z,14.57
2019-05-11T05:11:45.618Z,15.77
2019-05-11T05:14:22.755Z,15.90
2019-05-11T05:16:59.959Z,15.90
2019-05-11T05:19:37.083Z,15.53
2019-05-11T05:22:14.250Z,15.50
2019-05-11T05:24:51.882Z,16.53
2019-05-11T05:27:29.041Z,15.40
2019-05-11T05:30:06.664Z,14.10
2019-05-11T05:32:44.011Z,15.30
2019-05-11T05:35:21.158Z,14.53
2019-05-11T05:37:58.294Z,15.20
2019-05-11T05:40:35.469Z,13.33
2019-05-11T05:43:25.582Z,14.37
2019-05-11T05:45:51.998Z,13.57
2019-05-11T05:48:29.071Z,15.30
2019-05-11T05:51:07.050Z,16.03
2019-05-11T05:53:44.139Z,14.53
2019-05-11T05:56:21.314Z,15.77
2019-05-11T05:58:58.412Z,14.80
2019-05-11T06:01:35.597Z,17.10
2019-05-11T06:04:12.751Z,16.50
2019-05-11T06:06:49.947Z,16.23
2019-05-11T06:09:27.061Z,15.50
2019-05-11T06:12:04.252Z,16.23
2019-05-11T06:14:41.626Z,15.30
2019-05-11T06:17:18.790Z,17.07
2019-05-11T06:19:55.875Z,17.57
2019-05-11T06:22:32.999Z,15.23
2019-05-11T06:25:10.095Z,15.77
2019-05-11T06:27:47.256Z,15.70
2019-05-11T06:30:24.362Z,15.30
2019-05-11T06:33:34.987Z,13.30
2019-05-11T06:36:48.218Z,14.47
2019-05-11T06:39:25.633Z,13.10
2019-05-11T06:42:02.793Z,14.33
2019-05-11T06:44:40.027Z,16.17
2019-05-11T06:47:17.123Z,14.30
2019-05-11T06:49:54.292Z,15.63
2019-05-11T06:52:31.790Z,14.43
2019-05-11T06:55:08.961Z,13.87
2019-05-11T06:57:46.042Z,13.17
2019-05-11T07:00:23.248Z,12.37
2019-05-11T07:03:00.369Z,13.23
2019-05-11T07:05:37.611Z,11.33
2019-05-11T07:08:16.227Z,11.60
2019-05-11T07:10:53.443Z,11.57
2019-05-11T07:13:30.542Z,10.53
2019-05-11T07:16:07.715Z,11.53
2019-05-11T07:18:44.842Z,10.40
2019-05-11T07:21:22.030Z,10.33
2019-05-11T07:24:06.025Z,10.68
2019-05-11T07:26:43.283Z,11.63
2019-05-11T07:29:20.856Z,10.48
2019-05-11T07:32:06.268Z,10.43
2019-05-11T07:34:38.742Z,8.68
2019-05-11T07:37:18.486Z,10.90
2019-05-11T07:39:57.951Z,8.15
2019-05-11T07:42:37.671Z,8.75
2019-05-11T07:45:14.494Z,7.92
2019-05-11T07:47:52.211Z,6.45
2019-05-11T07:50:29.946Z,7.12
2019-05-11T07:53:08.272Z,7.83
2019-05-11T07:55:48.505Z,8.38
2019-05-11T07:58:28.497Z,6.22
2019-05-11T08:01:09.610Z,6.47
2019-05-11T08:03:48.258Z,5.85
2019-05-11T08:06:28.525Z,6.75
2019-05-11T08:09:08.381Z,7.40
2019-05-11T08:11:47.790Z,7.97
2019-05-11T08:14:25.598Z,8.50
2019-05-11T08:17:03.335Z,8.13
2019-05-11T08:19:41.005Z,8.78
2019-05-11T08:22:22.715Z,7.90
2019-05-11T08:25:02.227Z,7.45
2019-05-11T08:27:39.979Z,6.17
2019-05-11T08:30:18.825Z,6.72
2019-05-11T08:32:58.272Z,6.03
2019-05-11T08:35:38.795Z,4.53
2019-05-11T08:38:17.902Z,5.42
2019-05-11T08:40:55.949Z,4.90
2019-05-11T08:43:38.694Z,4.70
2019-05-11T08:46:18.507Z,4.80
2019-05-11T08:48:59.319Z,5.05
2019-05-11T08:51:39.019Z,5.00
2019-05-11T08:54:18.358Z,5.20
2019-05-11T08:56:58.528Z,5.75
2019-05-11T08:59:38.108Z,5.70
2019-05-11T09:02:20.922Z,5.85
2019-05-11T09:04:59.059Z,5.60
2019-05-11T09:07:38.382Z,5.25
2019-05-11T09:10:18.386Z,6.22
2019-05-11T09:12:59.055Z,6.12
2019-05-11T09:15:40.795Z,5.75
2019-05-11T09:18:21.970Z,5.83
2019-05-11T09:20:59.702Z,5.78
2019-05-11T09:23:40.577Z,5.33
2019-05-11T09:26:18.179Z,5.70
2019-05-11T09:28:58.048Z,5.15
2019-05-11T09:31:35.358Z,6.15
2019-05-11T09:34:13.075Z,5.87
2019-05-11T09:36:50.773Z,6.17
2019-05-11T09:39:28.475Z,6.15
2019-05-11T09:42:07.749Z,7.78
2019-05-11T09:44:45.634Z,6.87
2019-05-11T09:47:23.366Z,5.37
2019-05-11T09:50:01.079Z,5.90
2019-05-11T09:52:38.783Z,6.50
2019-05-11T09:55:18.808Z,5.95
2019-05-11T09:57:57.830Z,5.80
2019-05-11T10:00:38.862Z,6.65
2019-05-11T10:03:18.150Z,6.72
2019-05-11T10:05:57.819Z,4.65
2019-05-11T10:08:34.884Z,4.42
2019-05-11T10:11:12.619Z,5.15
2019-05-11T10:13:51.244Z,4.62
2019-05-11T10:16:28.969Z,4.17
2019-05-11T10:19:08.526Z,4.47
2019-05-11T10:21:45.993Z,3.98
2019-05-11T10:24:23.670Z,4.30
2019-05-11T10:27:04.173Z,5.20
2019-05-11T10:29:41.814Z,4.42
2019-05-11T10:32:20.671Z,3.83
2019-05-11T10:34:58.472Z,4.20
2019-05-11T10:37:38.706Z,4.00
2019-05-11T10:40:15.561Z,4.47
2019-05-11T10:42:53.259Z,2.98
2019-05-11T10:45:30.930Z,3.72
2019-05-11T10:48:10.286Z,3.60
2019-05-11T10:50:48.503Z,3.40
2019-05-11T10:53:27.823Z,3.90
2019-05-11T10:56:05.684Z,3.42
2019-05-11T10:58:43.452Z,4.12
2019-05-11T11:01:21.101Z,4.30
2019-05-11T11:03:58.847Z,3.70
2019-05-11T11:06:38.483Z,3.92
2019-05-11T11:09:17.733Z,3.77
2019-05-11T11:11:57.895Z,4.70
2019-05-11T11:14:37.541Z,3.83
2019-05-11T11:17:14.889Z,4.08
2019-05-11T11:19:52.636Z,4.28
2019-05-11T11:22:39.346Z,4.58
2019-05-11T11:25:09.643Z,4.40
2019-05-11T11:27:48.649Z,5.05
2019-05-11T11:30:28.566Z,4.33
2019-05-11T11:33:07.995Z,4.08
2019-05-11T11:35:47.603Z,3.55
2019-05-11T11:38:24.631Z,3.25
2019-05-11T11:41:02.361Z,3.77
2019-05-11T11:43:40.018Z,2.92
2019-05-11T11:46:18.814Z,4.03
2019-05-11T11:48:58.115Z,3.12
2019-05-11T11:51:37.788Z,3.50
2019-05-11T11:54:18.153Z,3.45
2019-05-11T11:56:58.781Z,2.60
2019-05-11T11:59:38.448Z,2.12
2019-05-11T12:02:15.457Z,2.25
2019-05-11T12:04:53.189Z,2.83
2019-05-11T12:07:31.043Z,3.30
2019-05-11T12:10:08.823Z,2.67
2019-05-11T12:12:47.600Z,2.50
2019-05-11T12:15:25.414Z,3.12
2019-05-11T12:18:03.112Z,3.30
2019-05-11T12:20:40.857Z,2.80
2019-05-11T12:23:18.547Z,2.30
2019-05-11T12:25:57.984Z,2.20
2019-05-11T12:28:41.959Z,2.83
2019-05-11T12:31:28.867Z,2.40
2019-05-11T12:34:05.749Z,2.80
2019-05-11T12:36:43.405Z,2.70
2019-05-11T12:39:21.141Z,2.00
2019-05-11T12:42:00.237Z,2.45
2019-05-11T12:44:38.704Z,2.20
2019-05-11T12:47:22.135Z,1.85
2019-05-11T12:49:55.800Z,2.20
2019-05-11T12:52:33.463Z,2.40
2019-05-11T12:55:17.725Z,2.20
2019-05-11T12:57:55.011Z,2.10
2019-05-11T13:00:33.397Z,2.67
2019-05-11T13:03:10.508Z,2.10
2019-05-11T13:05:48.586Z,2.25
2019-05-11T13:08:27.781Z,2.40
2019-05-11T13:11:07.354Z,2.20
2019-05-11T13:13:48.387Z,2.92
2019-05-11T13:16:28.618Z,2.27
2019-05-11T13:19:05.648Z,2.90
2019-05-11T13:21:43.477Z,2.67
2019-05-11T13:24:21.127Z,5.62
2019-05-11T13:26:59.782Z,4.30
2019-05-11T13:29:37.906Z,2.90
2019-05-11T13:32:15.612Z,3.92
2019-05-11T13:34:52.738Z,2.65
2019-05-11T13:37:30.505Z,3.90
2019-05-11T13:40:08.206Z,4.03
2019-05-11T13:42:46.023Z,3.27
2019-05-11T13:45:28.048Z,3.05
2019-05-11T13:48:05.064Z,2.83
2019-05-11T13:50:42.185Z,2.85
2019-05-11T13:53:19.358Z,2.58
2019-05-11T13:55:58.738Z,2.60
2019-05-11T13:58:38.005Z,3.00
2019-05-11T14:01:15.420Z,3.22
2019-05-11T14:03:58.373Z,3.12
2019-05-11T14:06:34.788Z,3.87
2019-05-11T14:09:12.514Z,4.05
2019-05-11T14:11:49.621Z,3.70
2019-05-11T14:14:28.737Z,3.80
2019-05-11T14:17:08.281Z,2.67
2019-05-11T14:19:45.040Z,3.33
2019-05-11T14:22:22.174Z,3.60
2019-05-11T14:25:02.300Z,3.60
2019-05-11T14:27:40.069Z,4.75
2019-05-11T14:30:19.090Z,4.05
2019-05-11T14:32:57.945Z,4.43
2019-05-11T14:35:38.279Z,5.33
2019-05-11T14:38:14.916Z,4.87
2019-05-11T14:40:52.632Z,5.13
2019-05-11T14:43:29.791Z,5.03
2019-05-11T14:46:09.076Z,5.50
2019-05-11T14:48:50.402Z,5.30
2019-05-11T14:51:28.241Z,6.10
2019-05-11T14:54:08.149Z,6.37
2019-05-11T14:56:47.966Z,5.97
2019-05-11T14:59:24.366Z,5.60
2019-05-11T15:02:03.183Z,5.00
2019-05-11T15:04:40.278Z,5.30
2019-05-11T15:07:17.843Z,5.17
2019-05-11T15:09:55.143Z,5.70
2019-05-11T15:12:32.349Z,5.07
2019-05-11T15:15:09.538Z,6.27
2019-05-11T15:17:48.885Z,4.60
2019-05-11T15:20:25.431Z,4.90
2019-05-11T15:23:02.583Z,7.67
2019-05-11T15:25:39.688Z,5.80
2019-05-11T15:28:18.123Z,6.50
2019-05-11T15:30:56.088Z,6.70
2019-05-11T15:33:34.032Z,7.40
2019-05-11T15:36:12.108Z,12.47
2019-05-11T15:38:49.814Z,12.30
2019-05-11T15:41:30.433Z,12.20
2019-05-11T15:44:11.825Z,11.90
2019-05-11T15:46:48.700Z,7.30
2019-05-11T15:49:28.486Z,5.87
2019-05-11T15:52:08.032Z,6.10
2019-05-11T15:54:44.470Z,6.53
2019-05-11T15:57:21.607Z,6.10
2019-05-11T15:59:58.891Z,6.23
2019-05-11T16:02:37.836Z,7.23
2019-05-11T16:05:14.765Z,6.10
2019-05-11T16:07:52.214Z,7.60
2019-05-11T16:10:29.321Z,7.57
2019-05-11T16:13:08.938Z,7.23
2019-05-11T16:15:47.698Z,6.60
2019-05-11T16:18:25.186Z,6.43
2019-05-11T16:21:02.312Z,6.60
2019-05-11T16:23:42.067Z,5.10
2019-05-11T16:26:19.173Z,5.60
2019-05-11T16:28:58.183Z,5.77
2019-05-11T16:31:35.027Z,5.23
2019-05-11T16:34:13.266Z,5.50
2019-05-11T16:36:50.475Z,5.50
2019-05-11T16:39:28.067Z,6.00
2019-05-11T16:42:05.354Z,5.80
2019-05-11T16:44:42.451Z,6.00
2019-05-11T16:47:23.066Z,6.63
2019-05-11T16:50:00.249Z,7.30
2019-05-11T16:52:38.679Z,7.50
2019-05-11T16:55:18.083Z,6.13
2019-05-11T16:57:54.916Z,7.10
2019-05-11T17:00:32.068Z,7.93
2019-05-11T17:03:11.584Z,8.03
2019-05-11T17:05:48.785Z,8.50
2019-05-11T17:08:27.699Z,9.30
2019-05-11T17:11:09.268Z,9.90
2019-05-11T17:13:48.382Z,9.70
2019-05-11T17:16:25.659Z,9.63
2019-05-11T17:19:02.767Z,9.93
2019-05-11T17:21:40.438Z,9.97
2019-05-11T17:24:17.555Z,9.47
2019-05-11T17:26:54.755Z,9.40
2019-05-11T17:29:31.846Z,9.73
2019-05-11T17:32:09.050Z,8.70
2019-05-11T17:34:47.913Z,10.70
2019-05-11T17:37:25.101Z,10.60
2019-05-11T17:40:02.235Z,10.87
2019-05-11T17:42:39.420Z,11.13
2019-05-11T17:45:19.003Z,12.13
2019-05-11T17:48:10.335Z,12.60
2019-05-11T17:50:47.449Z,13.33
2019-05-11T17:53:24.609Z,13.10
2019-05-11T17:56:01.721Z,13.43
2019-05-11T17:58:38.913Z,14.00
2019-05-11T18:01:18.475Z,15.50
2019-05-11T18:03:54.870Z,14.27
2019-05-11T18:06:32.239Z,15.57
2019-05-11T18:09:09.456Z,14.57
2019-05-11T18:11:52.559Z,15.67
2019-05-11T18:14:29.941Z,14.53
2019-05-11T18:17:10.624Z,16.20
2019-05-11T18:19:47.739Z,16.50
2019-05-11T18:22:24.902Z,15.33
2019-05-11T18:25:02.013Z,16.63
2019-05-11T18:27:39.195Z,16.17
2019-05-11T18:30:16.394Z,16.00
2019-05-11T18:32:55.206Z,15.43
2019-05-11T18:35:32.440Z,19.60
2019-05-11T18:38:09.642Z,17.23
2019-05-11T18:40:48.625Z,16.37
2019-05-11T18:43:27.826Z,16.90
2019-05-11T18:46:08.511Z,17.30
2019-05-11T18:48:45.853Z,16.63
2019-05-11T18:51:23.004Z,16.97
2019-05-11T18:54:02.520Z,16.93
2019-05-11T18:56:40.895Z,17.47
2019-05-11T18:59:20.168Z,17.57
2019-05-11T19:01:58.667Z,17.43
2019-05-11T19:04:38.041Z,18.00
2019-05-11T19:07:17.252Z,17.93
2019-05-11T19:09:57.587Z,19.43
2019-05-11T19:12:33.828Z,18.23
2019-05-11T19:15:11.003Z,18.53
2019-05-11T19:17:49.042Z,17.37
2019-05-11T19:20:28.305Z,18.37
2019-05-11T19:23:08.201Z,18.87
2019-05-11T19:25:44.175Z,19.63
2019-05-11T19:28:21.368Z,19.47
2019-05-11T19:30:59.221Z,19.77
2019-05-11T19:33:38.149Z,19.80
2019-05-11T19:36:15.462Z,20.23
2019-05-11T19:38:52.561Z,20.67
2019-05-11T19:41:29.795Z,21.63
2019-05-11T19:44:10.923Z,21.53
2019-05-11T19:46:49.137Z,20.83
2019-05-11T19:49:27.903Z,20.80
2019-05-11T19:52:05.302Z,21.33
2019-05-11T19:54:44.160Z,20.53
2019-05-11T19:57:21.504Z,22.00
2019-05-11T19:59:59.811Z,21.33
2019-05-11T20:02:39.084Z,21.23
2019-05-11T20:05:18.174Z,20.60
2019-05-11T20:07:55.725Z,22.40
2019-05-11T20:10:32.928Z,21.03
2019-05-11T20:13:11.707Z,21.07
2019-05-11T20:15:48.907Z,23.13
2019-05-11T20:18:28.630Z,24.93
2019-05-11T20:21:17.670Z,22.67
2019-05-11T20:23:44.107Z,21.73
2019-05-11T20:26:21.771Z,20.33
2019-05-11T20:28:59.865Z,20.23
2019-05-11T20:31:37.148Z,18.73
2019-05-11T20:34:14.985Z,20.50
2019-05-11T20:36:52.206Z,19.77
2019-05-11T20:39:29.414Z,20.40
2019-05-11T20:42:08.658Z,21.37
2019-05-11T20:44:45.481Z,22.10
2019-05-11T20:47:22.777Z,21.50
2019-05-11T20:49:59.916Z,21.00
2019-05-11T20:52:39.031Z,20.33
2019-05-11T20:55:18.139Z,20.43
2019-05-11T20:57:54.755Z,19.23
2019-05-11T21:00:33.647Z,19.37
2019-05-11T21:03:13.937Z,19.70
2019-05-11T21:05:53.755Z,19.57
2019-05-11T21:08:31.283Z,20.63
2019-05-11T21:11:12.109Z,21.27
2019-05-11T21:14:01.690Z,20.27
2019-05-11T21:16:39.089Z,22.60
2019-05-11T21:19:31.818Z,20.77
2019-05-11T21:22:08.892Z,19.03
2019-05-11T21:24:52.033Z,19.93
2019-05-11T21:27:51.738Z,20.20
2019-05-11T21:30:39.922Z,20.63
2019-05-11T21:33:21.326Z,19.23
2019-05-11T21:36:08.838Z,18.00
2019-05-11T21:38:48.389Z,19.20
2019-05-11T21:41:38.692Z,19.53
2019-05-11T21:44:27.739Z,19.43
2019-05-11T21:47:14.930Z,17.80
2019-05-11T21:50:02.070Z,18.87
2019-05-11T21:52:42.150Z,19.30
2019-05-11T21:55:33.353Z,17.23
2019-05-11T21:58:28.515Z,18.87
2019-05-11T22:00:59.797Z,16.00
2019-05-11T22:03:50.416Z,16.37
2019-05-11T22:06:30.669Z,15.17
2019-05-11T22:09:18.739Z,14.93
2019-05-11T22:12:03.774Z,18.00
2019-05-11T22:14:50.349Z,19.33
2019-05-11T22:17:39.837Z,16.00
2019-05-11T22:20:23.934Z,15.87
2019-05-11T22:23:10.489Z,16.00
2019-05-11T22:25:53.106Z,19.20
2019-05-11T22:28:33.969Z,18.30
2019-05-11T22:31:12.760Z,17.23
2019-05-11T22:33:51.634Z,17.93
2019-05-11T22:36:30.736Z,17.90
2019-05-11T22:39:11.162Z,18.57
2019-05-11T22:41:51.051Z,18.57
2019-05-11T22:44:38.502Z,18.40
2019-05-11T22:47:17.933Z,19.30
2019-05-11T22:50:07.888Z,20.00
2019-05-11T22:52:51.415Z,19.93
2019-05-11T22:55:49.140Z,20.20
2019-05-11T22:58:29.985Z,23.03
2019-05-11T23:01:17.969Z,22.47
2019-05-11T23:04:09.513Z,22.67
2019-05-11T23:06:48.037Z,23.33
2019-05-11T23:09:31.654Z,21.43
2019-05-11T23:12:18.045Z,22.27
2019-05-11T23:15:13.618Z,21.97
2019-05-11T23:17:54.090Z,19.87
2019-05-11T23:20:31.506Z,20.27
2019-05-11T23:23:12.198Z,21.17
2019-05-11T23:25:53.966Z,18.37
2019-05-11T23:28:39.312Z,18.57
2019-05-11T23:31:19.521Z,18.73
2019-05-11T23:33:57.886Z,18.00
2019-05-11T23:36:41.823Z,19.20
2019-05-11T23:39:19.174Z,18.37
2019-05-11T23:42:01.160Z,19.67
2019-05-11T23:44:46.485Z,19.07
2019-05-11T23:47:28.876Z,18.07
2019-05-11T23:50:18.534Z,18.30
2019-05-11T23:53:09.208Z,18.57
2019-05-11T23:55:48.389Z,19.87
2019-05-11T23:58:28.133Z,18.67
